Time;durP1;ratioP1;P1;durP2;ratioP2;P2;SDS_P1;SDS_P2;PMS_P1;PMS_P2;Temp;Humidity;BMP_temperature;BMP_pressure;BME280_temperature;BME280_humidity;BME280_pressure;Samples;Min_cycle;Max_cycle;Signal;HPM_P1;HPM_P2
2022/11/07 00:02:03;;;;;;;2.40;0.52;;;10.00;99.90;;;;;;5051494;28;20472;-75
2022/11/07 00:04:29;;;;;;;0.20;0.20;;;10.00;99.90;;;;;;5034087;28;20049;-74
2022/11/07 00:06:55;;;;;;;2.63;1.27;;;10.10;99.90;;;;;;5051574;28;20053;-77
2022/11/07 00:09:21;;;;;;;0.90;0.20;;;10.10;99.90;;;;;;5045232;28;20156;-74
2022/11/07 00:11:46;;;;;;;0.35;0.35;;;10.10;99.90;;;;;;5047960;28;20039;-77
2022/11/07 00:14:13;;;;;;;0.17;0.17;;;10.10;99.90;;;;;;5050428;28;20404;-74
2022/11/07 00:16:40;;;;;;;0.08;0.08;;;10.10;99.90;;;;;;5051543;28;20041;-75
2022/11/07 00:19:06;;;;;;;0.55;0.45;;;10.10;99.90;;;;;;5046693;28;20041;-77
2022/11/07 00:21:32;;;;;;;0.50;0.50;;;10.10;99.90;;;;;;5033068;28;20056;-77
2022/11/07 00:23:57;;;;;;;0.17;0.15;;;10.30;99.90;;;;;;5050894;28;20105;-75
2022/11/07 00:26:23;;;;;;;0.15;0.15;;;10.20;99.90;;;;;;5050332;28;20116;-76
2022/11/07 00:28:49;;;;;;;0.30;0.22;;;10.30;99.90;;;;;;5052094;28;20366;-75
2022/11/07 00:31:15;;;;;;;0.65;0.65;;;10.30;99.90;;;;;;5053273;28;20055;-73
2022/11/07 00:33:42;;;;;;;0.32;0.32;;;10.30;99.90;;;;;;5050621;28;20053;-77
2022/11/07 00:36:14;;;;;;;0.95;0.85;;;10.30;99.90;;;;;;5050081;28;20354;-75
2022/11/07 00:38:40;;;;;;;0.10;0.10;;;10.40;99.90;;;;;;5052196;28;20040;-77
2022/11/07 00:41:06;;;;;;;0.40;0.30;;;10.30;99.90;;;;;;5050868;28;20053;-74
2022/11/07 00:43:32;;;;;;;0.90;0.73;;;10.40;99.90;;;;;;5051028;28;20052;-75
2022/11/07 00:46:01;;;;;;;7.22;1.70;;;10.50;99.90;;;;;;5051376;28;20462;-74
2022/11/07 00:48:26;;;;;;;0.10;0.10;;;10.40;99.90;;;;;;5050965;28;20037;-75
2022/11/07 00:50:52;;;;;;;0.35;0.15;;;10.40;99.90;;;;;;5051442;28;20064;-76
2022/11/07 00:53:18;;;;;;;0.20;0.10;;;10.40;99.90;;;;;;5051907;28;20483;-75
2022/11/07 00:55:44;;;;;;;0.10;0.10;;;10.40;99.90;;;;;;5053516;28;20583;-76
2022/11/07 00:58:10;;;;;;;0.20;0.20;;;10.50;99.90;;;;;;5035359;28;20602;-74
2022/11/07 01:00:36;;;;;;;0.15;0.15;;;10.60;99.90;;;;;;5054623;28;20052;-77
2022/11/07 01:06:07;;;;;;;1.95;1.67;;;10.70;99.90;;;;;;5054194;28;20053;-75
2022/11/07 01:08:33;;;;;;;7.40;0.93;;;10.70;99.90;;;;;;5055838;28;20084;-76
2022/11/07 01:11:04;;;;;;;0.40;0.40;;;10.60;99.90;;;;;;5054849;28;20041;-75
2022/11/07 01:13:30;;;;;;;0.47;0.47;;;10.60;99.80;;;;;;5054216;28;20052;-76
2022/11/07 01:15:56;;;;;;;0.20;0.20;;;10.70;96.10;;;;;;5053510;28;20045;-76
2022/11/07 01:18:21;;;;;;;0.32;0.32;;;10.70;89.70;;;;;;5055131;28;20107;-76
2022/11/07 01:20:48;;;;;;;16.35;0.68;;;10.80;43.10;;;;;;5053873;28;20060;-76
2022/11/07 01:23:15;;;;;;;16.58;1.58;;;10.80;26.50;;;;;;5035439;28;20140;-76
2022/11/07 01:25:40;;;;;;;0.45;0.35;;;10.90;14.70;;;;;;5053002;28;20391;-75
2022/11/07 01:28:07;;;;;;;0.50;0.47;;;10.90;1.00;;;;;;5051243;28;20037;-75
2022/11/07 01:30:38;;;;;;;0.28;0.25;;;11.00;1.00;;;;;;5053500;28;20055;-75
2022/11/07 01:33:03;;;;;;;0.10;0.10;;;11.10;1.00;;;;;;5052952;28;20078;-75
2022/11/07 01:35:30;;;;;;;0.65;0.65;;;11.10;99.90;;;;;;5053044;28;20040;-76
2022/11/07 01:37:56;;;;;;;0.63;0.43;;;11.10;1.00;;;;;;5053641;28;20049;-75
2022/11/07 01:40:21;;;;;;;0.20;0.20;;;11.00;1.00;;;;;;5052292;28;20045;-74
2022/11/07 01:42:47;;;;;;;0.65;0.45;;;11.00;1.00;;;;;;5052849;28;20145;-76
2022/11/07 01:45:28;;;;;;;2.65;1.30;;;11.20;99.90;;;;;;5053488;28;20083;-74
2022/11/07 01:47:57;;;;;;;3.10;1.10;;;11.20;99.90;;;;;;5035244;28;20322;-74
2022/11/07 01:50:22;;;;;;;1.30;1.20;;;11.20;99.90;;;;;;5054815;28;20051;-74
2022/11/07 01:52:50;;;;;;;0.20;0.20;;;11.20;99.90;;;;;;5053356;28;20494;-76
2022/11/07 01:55:21;;;;;;;3.92;0.45;;;11.20;99.90;;;;;;5053326;28;20040;-75
2022/11/07 01:57:54;;;;;;;0.25;0.20;;;11.20;99.90;;;;;;5052507;28;20068;-74
2022/11/07 02:00:22;;;;;;;1.55;1.27;;;11.20;99.90;;;;;;5054294;28;20052;-75
2022/11/07 02:02:54;;;;;;;0.15;0.15;;;11.10;99.90;;;;;;5054296;28;20115;-76
2022/11/07 02:05:34;;;;;;;1.45;0.80;;;11.00;1.00;;;;;;5053776;28;20045;-75
2022/11/07 02:08:03;;;;;;;0.30;0.22;;;11.70;1.00;;;;;;5052028;28;20044;-75
2022/11/07 02:10:29;;;;;;;0.47;0.47;;;11.00;1.00;;;;;;5052106;28;20049;-75
2022/11/07 02:12:57;;;;;;;0.00;0.00;;;11.00;1.00;;;;;;5052708;28;20037;-74
2022/11/07 02:15:25;;;;;;;0.90;0.85;;;11.10;1.00;;;;;;5053444;28;20056;-74
2022/11/07 02:17:51;;;;;;;0.22;0.20;;;11.20;1.00;;;;;;5052754;28;20052;-74
2022/11/07 02:20:17;;;;;;;1.45;0.73;;;11.00;1.00;;;;;;5052633;28;20377;-75
2022/11/07 02:22:59;;;;;;;3.60;0.98;;;10.90;45.10;;;;;;5053102;28;20041;-75
2022/11/07 02:25:25;;;;;;;0.95;0.38;;;10.90;95.60;;;;;;5055827;28;20102;-76
2022/11/07 02:27:58;;;;;;;0.75;0.50;;;10.80;99.90;;;;;;5054654;28;20045;-76
2022/11/07 02:30:28;;;;;;;0.10;0.10;;;10.70;99.90;;;;;;5057948;28;20036;-74
2022/11/07 02:32:54;;;;;;;0.65;0.65;;;10.60;99.90;;;;;;5058072;28;20057;-75
2022/11/07 02:35:38;;;;;;;0.28;0.25;;;10.60;99.90;;;;;;5057021;28;20052;-75
2022/11/07 02:38:19;;;;;;;0.00;0.00;;;10.60;99.90;;;;;;5052094;28;20044;-76
2022/11/07 02:40:47;;;;;;;0.70;0.35;;;10.50;99.90;;;;;;5048543;28;20375;-74
2022/11/07 02:43:17;;;;;;;0.88;0.40;;;10.50;99.90;;;;;;5046322;28;20391;-75
2022/11/07 02:45:44;;;;;;;0.20;0.20;;;10.40;99.90;;;;;;5045560;28;20454;-74
2022/11/07 02:48:10;;;;;;;0.10;0.10;;;10.40;99.90;;;;;;5046799;28;20093;-76
2022/11/07 02:50:36;;;;;;;1.27;0.93;;;10.30;99.90;;;;;;5047282;28;20132;-74
2022/11/07 02:53:02;;;;;;;5.93;0.63;;;10.30;99.90;;;;;;5049390;28;20588;-74
2022/11/07 02:55:27;;;;;;;0.63;0.35;;;10.30;99.90;;;;;;5049767;28;20048;-76
2022/11/07 02:57:53;;;;;;;0.82;0.28;;;10.40;99.90;;;;;;5054219;28;20076;-75
2022/11/07 03:00:19;;;;;;;0.55;0.55;;;10.30;99.90;;;;;;5051386;28;20111;-77
2022/11/07 03:02:47;;;;;;;7.32;2.08;;;10.40;99.90;;;;;;5050112;28;20049;-77
2022/11/07 03:05:18;;;;;;;1.55;0.47;;;10.40;99.90;;;;;;5049260;28;20041;-73
2022/11/07 03:07:45;;;;;;;0.65;0.57;;;10.60;99.90;;;;;;5048356;28;20040;-76
2022/11/07 03:10:12;;;;;;;0.00;0.00;;;10.40;99.90;;;;;;5045611;28;20041;-75
2022/11/07 03:12:38;;;;;;;4.80;0.75;;;10.30;99.90;;;;;;5046210;28;20048;-74
2022/11/07 03:15:06;;;;;;;0.00;0.00;;;10.30;99.90;;;;;;5045587;28;20068;-75
2022/11/07 03:17:32;;;;;;;0.73;0.73;;;10.20;99.90;;;;;;5046935;28;20072;-75
2022/11/07 03:19:58;;;;;;;0.05;0.05;;;10.20;99.90;;;;;;5048066;28;20463;-76
2022/11/07 03:22:23;;;;;;;1.77;0.93;;;10.30;99.90;;;;;;5047095;28;20131;-75
2022/11/07 03:24:49;;;;;;;0.35;0.30;;;10.10;99.90;;;;;;5030752;28;20084;-74
2022/11/07 03:27:15;;;;;;;0.10;0.10;;;10.00;99.90;;;;;;5049158;28;20037;-75
2022/11/07 03:29:41;;;;;;;1.75;0.70;;;9.90;99.90;;;;;;5048386;28;20056;-74
2022/11/07 03:32:07;;;;;;;0.88;0.55;;;9.90;99.90;;;;;;5048597;28;20040;-75
2022/11/07 03:34:33;;;;;;;0.45;0.45;;;9.90;99.90;;;;;;5049858;28;20049;-74
2022/11/07 03:36:59;;;;;;;0.22;0.20;;;9.90;99.90;;;;;;5047310;28;20060;-73
2022/11/07 03:39:24;;;;;;;0.10;0.10;;;9.90;99.90;;;;;;5038922;28;20168;-73
2022/11/07 03:41:50;;;;;;;0.98;0.93;;;9.90;99.90;;;;;;5028152;28;20128;-74
2022/11/07 03:44:16;;;;;;;0.22;0.22;;;9.80;99.90;;;;;;5029013;28;20041;-75
2022/11/07 03:46:41;;;;;;;0.20;0.20;;;9.80;99.90;;;;;;5024597;28;20159;-75
2022/11/07 03:49:07;;;;;;;0.00;0.00;;;9.80;99.90;;;;;;5047877;28;20135;-74
2022/11/07 03:51:33;;;;;;;0.40;0.40;;;9.80;99.90;;;;;;5048059;28;20508;-75
2022/11/07 03:53:59;;;;;;;2.83;1.65;;;10.00;99.90;;;;;;5048538;28;20041;-75
2022/11/07 03:56:25;;;;;;;0.00;0.00;;;10.00;99.90;;;;;;5048729;28;20075;-75
2022/11/07 03:58:50;;;;;;;0.30;0.30;;;10.00;99.90;;;;;;5047318;28;20069;-74
2022/11/07 04:01:16;;;;;;;2.80;0.52;;;10.10;99.90;;;;;;5048524;28;20056;-76
2022/11/07 04:03:42;;;;;;;0.47;0.47;;;10.00;99.90;;;;;;5049635;28;20049;-76
2022/11/07 04:06:08;;;;;;;0.63;0.35;;;10.20;99.90;;;;;;5048415;28;20120;-74
2022/11/07 04:08:34;;;;;;;5.28;0.57;;;10.00;99.90;;;;;;5048735;28;20378;-75
2022/11/07 04:11:00;;;;;;;0.20;0.20;;;10.10;99.90;;;;;;5047793;28;20120;-75
2022/11/07 04:18:56;;;;;;;0.40;0.40;;;10.10;99.90;;;;;;5051554;28;20056;-76
2022/11/07 04:21:22;;;;;;;0.17;0.15;;;10.10;99.90;;;;;;5050588;28;20045;-73
2022/11/07 04:23:49;;;;;;;0.50;0.50;;;10.00;99.90;;;;;;5049525;28;20692;-73
2022/11/07 04:28:59;;;;;;;0.20;0.17;;;10.00;99.90;;;;;;5042691;28;20380;-73
2022/11/07 04:31:40;;;;;;;1.23;0.65;;;9.90;99.90;;;;;;5053148;28;20041;-74
2022/11/07 04:34:16;;;;;;;2.33;1.27;;;9.80;99.90;;;;;;5052197;28;20052;-75
2022/11/07 04:36:42;;;;;;;1.08;0.75;;;9.90;99.90;;;;;;5053511;28;20053;-75
2022/11/07 04:39:07;;;;;;;0.20;0.20;;;9.90;99.90;;;;;;5054449;28;20503;-73
2022/11/07 04:41:33;;;;;;;5.68;1.17;;;9.90;99.90;;;;;;5052748;28;20076;-74
2022/11/07 04:43:59;;;;;;;0.90;0.45;;;9.90;99.90;;;;;;5053370;28;20057;-76
2022/11/07 04:46:24;;;;;;;2.75;1.55;;;9.90;99.90;;;;;;5052785;28;20055;-76
2022/11/07 04:48:50;;;;;;;1.17;0.40;;;9.80;99.90;;;;;;5053052;28;20048;-74
2022/11/07 04:51:19;;;;;;;0.08;0.08;;;9.80;99.90;;;;;;5050853;28;20044;-74
2022/11/07 04:53:45;;;;;;;0.35;0.25;;;10.00;99.90;;;;;;5056028;28;20049;-75
2022/11/07 04:56:11;;;;;;;1.85;1.33;;;10.10;99.90;;;;;;5053713;28;20052;-77
2022/11/07 04:58:36;;;;;;;0.80;0.55;;;10.20;99.90;;;;;;5054995;28;20064;-75
2022/11/07 05:01:02;;;;;;;0.00;0.00;;;10.20;99.90;;;;;;5053750;28;20430;-77
2022/11/07 05:03:28;;;;;;;0.20;0.20;;;10.10;99.90;;;;;;5052280;28;20044;-75
2022/11/07 05:05:54;;;;;;;0.40;0.20;;;10.20;99.90;;;;;;5036159;28;20045;-75
2022/11/07 05:08:19;;;;;;;1.50;1.10;;;10.20;99.90;;;;;;5053047;28;20135;-75
2022/11/07 05:10:45;;;;;;;0.00;0.00;;;10.20;99.90;;;;;;5036139;28;20608;-76
2022/11/07 05:13:10;;;;;;;0.10;0.10;;;10.20;99.90;;;;;;5053635;28;20045;-77
2022/11/07 05:15:36;;;;;;;0.32;0.32;;;10.30;99.90;;;;;;5056171;28;20041;-75
2022/11/07 05:18:02;;;;;;;0.55;0.40;;;10.30;99.90;;;;;;5056594;28;20041;-77
2022/11/07 05:20:34;;;;;;;1.45;1.00;;;10.30;99.90;;;;;;5034935;28;20041;-75
2022/11/07 05:23:12;;;;;;;0.17;0.17;;;10.30;99.90;;;;;;5037580;28;21149;-77
2022/11/07 05:25:38;;;;;;;0.47;0.47;;;10.30;99.90;;;;;;5042039;28;20418;-77
2022/11/07 05:28:05;;;;;;;1.83;1.70;;;10.30;99.90;;;;;;5016638;28;20053;-76
2022/11/07 05:30:31;;;;;;;5.38;0.85;;;10.30;99.90;;;;;;5042254;28;20045;-75
2022/11/07 05:32:57;;;;;;;0.10;0.08;;;11.10;99.90;;;;;;5042013;28;20438;-76
2022/11/07 05:35:23;;;;;;;0.20;0.20;;;10.20;99.90;;;;;;5047209;28;20037;-76
2022/11/07 05:37:48;;;;;;;3.85;1.67;;;10.20;99.90;;;;;;5053216;28;20045;-77
2022/11/07 05:40:14;;;;;;;0.95;0.90;;;10.20;99.90;;;;;;5053650;28;20576;-76
2022/11/07 05:42:40;;;;;;;0.80;0.68;;;10.40;99.90;;;;;;5054460;28;20111;-75
2022/11/07 05:45:07;;;;;;;0.00;0.00;;;10.20;99.90;;;;;;5054329;28;20037;-75
2022/11/07 05:47:32;;;;;;;2.42;0.93;;;10.30;99.90;;;;;;5054310;28;20056;-75
2022/11/07 05:49:58;;;;;;;0.00;0.00;;;10.20;99.90;;;;;;5053275;28;20048;-75
2022/11/07 05:52:24;;;;;;;0.38;0.38;;;10.30;99.90;;;;;;5054807;28;20075;-77
2022/11/07 05:54:49;;;;;;;0.08;0.08;;;10.30;99.90;;;;;;5044693;28;20399;-76
2022/11/07 05:57:15;;;;;;;4.28;1.88;;;10.20;99.90;;;;;;5051881;28;20084;-77
2022/11/07 05:59:41;;;;;;;0.50;0.50;;;10.20;99.90;;;;;;5051154;28;20141;-76
2022/11/07 06:02:07;;;;;;;0.60;0.60;;;10.20;99.90;;;;;;5054460;28;20040;-74
2022/11/07 06:04:32;;;;;;;0.28;0.28;;;10.20;99.90;;;;;;5052686;28;20041;-77
2022/11/07 06:06:58;;;;;;;3.10;1.75;;;10.30;99.90;;;;;;5051236;28;20140;-74
2022/11/07 06:09:23;;;;;;;0.68;0.55;;;10.30;99.90;;;;;;5050576;28;20499;-77
2022/11/07 06:11:49;;;;;;;0.28;0.28;;;10.40;99.90;;;;;;5049310;28;20045;-75
2022/11/07 06:14:15;;;;;;;1.10;0.43;;;10.30;99.90;;;;;;5049106;28;20041;-76
2022/11/07 06:16:41;;;;;;;0.35;0.28;;;10.40;99.90;;;;;;5050148;28;20033;-75
2022/11/07 06:19:06;;;;;;;0.28;0.22;;;10.30;99.90;;;;;;5050705;28;20462;-76
2022/11/07 06:21:33;;;;;;;1.75;1.02;;;10.20;99.90;;;;;;5050842;28;20041;-76
2022/11/07 06:23:59;;;;;;;0.00;0.00;;;10.10;99.90;;;;;;5035306;28;20041;-75
2022/11/07 06:26:25;;;;;;;0.38;0.38;;;10.10;99.90;;;;;;5054045;28;20376;-74
2022/11/07 06:28:51;;;;;;;0.30;0.30;;;10.10;99.90;;;;;;5051700;28;20096;-76
2022/11/07 06:31:17;;;;;;;0.00;0.00;;;10.10;99.90;;;;;;5054086;28;20091;-76
2022/11/07 06:33:43;;;;;;;0.38;0.20;;;10.00;99.90;;;;;;5054586;28;20044;-75
2022/11/07 06:36:12;;;;;;;7.75;1.73;;;10.20;99.90;;;;;;5053016;28;20072;-75
2022/11/07 06:38:38;;;;;;;0.32;0.30;;;10.10;99.90;;;;;;5055590;28;20114;-74
2022/11/07 06:41:10;;;;;;;0.55;0.35;;;10.00;99.90;;;;;;5038583;28;20052;-76
2022/11/07 06:43:36;;;;;;;1.15;0.65;;;10.10;99.90;;;;;;5055980;28;20108;-76
2022/11/07 06:46:07;;;;;;;0.50;0.50;;;10.00;99.90;;;;;;5055083;28;20065;-76
2022/11/07 06:48:33;;;;;;;0.20;0.15;;;10.00;99.90;;;;;;5043115;28;20147;-77
2022/11/07 06:51:00;;;;;;;0.10;0.10;;;10.10;99.90;;;;;;5058537;28;20161;-75
2022/11/07 06:53:26;;;;;;;0.70;0.43;;;10.10;99.90;;;;;;5053751;28;20084;-77
2022/11/07 06:55:53;;;;;;;0.20;0.20;;;10.10;99.90;;;;;;5054822;28;20033;-77
2022/11/07 06:58:19;;;;;;;0.35;0.30;;;10.20;99.90;;;;;;5053216;28;20294;-74
2022/11/07 07:00:45;;;;;;;1.55;0.52;;;10.20;99.90;;;;;;5050793;28;20120;-77
2022/11/07 07:03:11;;;;;;;5.68;1.55;;;10.20;99.90;;;;;;5042523;28;20080;-76
2022/11/07 07:05:37;;;;;;;0.22;0.22;;;10.20;99.90;;;;;;5045632;28;20475;-76
2022/11/07 07:08:04;;;;;;;0.10;0.10;;;10.30;99.90;;;;;;5044846;28;20048;-75
2022/11/07 07:10:30;;;;;;;0.00;0.00;;;10.30;99.90;;;;;;5044889;28;20064;-75
2022/11/07 07:12:56;;;;;;;1.25;0.57;;;10.30;99.90;;;;;;5047013;28;20479;-75
2022/11/07 07:15:22;;;;;;;0.55;0.35;;;10.30;99.90;;;;;;5047849;28;20120;-76
2022/11/07 07:17:48;;;;;;;0.50;0.47;;;10.30;99.90;;;;;;5028504;28;20044;-76
2022/11/07 07:20:13;;;;;;;0.40;0.30;;;10.30;99.90;;;;;;5045117;28;20156;-74
2022/11/07 07:22:39;;;;;;;0.32;0.08;;;10.40;99.90;;;;;;5043374;28;20155;-75
2022/11/07 07:25:06;;;;;;;1.58;1.08;;;10.40;99.90;;;;;;5044872;28;20051;-76
2022/11/07 07:27:31;;;;;;;0.28;0.25;;;10.40;99.90;;;;;;5046535;28;20102;-75
2022/11/07 07:29:57;;;;;;;0.13;0.13;;;10.40;99.90;;;;;;5045317;28;20036;-78
2022/11/07 07:32:25;;;;;;;0.35;0.35;;;10.40;99.90;;;;;;5047052;28;20041;-76
2022/11/07 07:34:51;;;;;;;0.47;0.43;;;10.40;99.90;;;;;;5046996;28;20510;-77
2022/11/07 07:37:17;;;;;;;1.55;1.10;;;10.40;99.90;;;;;;5046353;28;20045;-75
2022/11/07 07:39:43;;;;;;;0.30;0.20;;;10.40;99.90;;;;;;5045833;28;20052;-76
2022/11/07 07:42:09;;;;;;;2.17;1.45;;;10.40;99.90;;;;;;5047116;28;20072;-75
2022/11/07 07:44:35;;;;;;;0.40;0.35;;;10.40;99.90;;;;;;5042702;28;20510;-77
2022/11/07 07:47:01;;;;;;;0.15;0.15;;;10.40;99.90;;;;;;5047933;28;20052;-76
2022/11/07 07:49:27;;;;;;;0.35;0.35;;;10.50;99.90;;;;;;5047897;28;20037;-77
2022/11/07 07:51:52;;;;;;;3.17;1.65;;;10.40;99.90;;;;;;5043709;28;20045;-76
2022/11/07 07:54:19;;;;;;;0.10;0.10;;;10.50;99.90;;;;;;5043135;28;20041;-76
2022/11/07 07:56:45;;;;;;;0.90;0.52;;;10.50;99.90;;;;;;5033336;28;20081;-77
2022/11/07 07:59:10;;;;;;;0.55;0.43;;;10.50;99.90;;;;;;5026933;28;20091;-77
2022/11/07 08:01:36;;;;;;;0.75;0.57;;;10.50;99.90;;;;;;5024834;28;20045;-77
2022/11/07 08:04:02;;;;;;;0.08;0.08;;;10.50;99.90;;;;;;5021681;28;20133;-76
2022/11/07 08:06:28;;;;;;;0.15;0.15;;;10.50;99.90;;;;;;5025610;28;20080;-76
2022/11/07 08:08:53;;;;;;;0.60;0.60;;;10.50;99.90;;;;;;5025233;28;20116;-75
2022/11/07 08:11:19;;;;;;;1.40;0.82;;;10.50;99.90;;;;;;5025811;28;20099;-75
2022/11/07 08:13:44;;;;;;;0.10;0.10;;;10.50;99.90;;;;;;5027497;28;20398;-75
2022/11/07 08:16:10;;;;;;;0.90;0.85;;;10.60;99.90;;;;;;5026759;28;20037;-76
2022/11/07 08:18:38;;;;;;;2.33;0.85;;;10.60;99.90;;;;;;5027817;28;20053;-78
2022/11/07 08:21:04;;;;;;;0.57;0.57;;;10.60;99.90;;;;;;5024603;28;20076;-77
2022/11/07 08:23:30;;;;;;;0.10;0.10;;;10.60;99.90;;;;;;5024791;28;20530;-75
2022/11/07 08:25:57;;;;;;;5.85;1.70;;;10.60;99.90;;;;;;5024261;28;20045;-75
2022/11/07 08:28:26;;;;;;;0.43;0.40;;;10.60;99.90;;;;;;5027702;28;20042;-76
2022/11/07 08:30:59;;;;;;;2.53;0.82;;;10.70;99.90;;;;;;5031451;28;20045;-76
2022/11/07 08:33:25;;;;;;;1.65;0.65;;;10.70;99.90;;;;;;5032094;28;20050;-76
2022/11/07 08:35:54;;;;;;;0.10;0.10;;;10.70;99.90;;;;;;5032575;28;20042;-78
2022/11/07 08:38:23;;;;;;;3.22;1.40;;;10.80;99.90;;;;;;5033445;28;20072;-78
2022/11/07 08:40:49;;;;;;;0.25;0.25;;;10.80;99.90;;;;;;5034072;28;20041;-75
2022/11/07 08:43:16;;;;;;;0.93;0.85;;;10.80;99.90;;;;;;5033153;28;20099;-77
2022/11/07 08:45:43;;;;;;;0.10;0.10;;;10.90;99.90;;;;;;5032778;28;20279;-76
2022/11/07 08:48:09;;;;;;;2.30;1.25;;;10.90;99.90;;;;;;5033882;28;20064;-76
2022/11/07 08:50:35;;;;;;;0.50;0.30;;;11.00;99.90;;;;;;5034680;28;20518;-76
2022/11/07 08:53:01;;;;;;;0.38;0.32;;;11.10;99.90;;;;;;5034177;28;20141;-78
2022/11/07 08:55:26;;;;;;;1.02;0.65;;;11.10;99.90;;;;;;5033385;28;20434;-76
2022/11/07 08:57:57;;;;;;;0.40;0.35;;;11.10;99.90;;;;;;5033648;28;20486;-75
2022/11/07 09:00:22;;;;;;;2.20;0.70;;;11.10;99.90;;;;;;5036230;28;20042;-77
2022/11/07 09:02:48;;;;;;;1.02;0.55;;;11.00;99.90;;;;;;5036099;28;20192;-74
2022/11/07 09:05:14;;;;;;;0.10;0.10;;;11.10;99.90;;;;;;5035498;28;20053;-78
2022/11/07 09:07:39;;;;;;;0.63;0.45;;;11.10;99.90;;;;;;5035334;28;20046;-77
2022/11/07 09:10:05;;;;;;;1.63;1.23;;;11.10;99.90;;;;;;5032442;28;20124;-76
2022/11/07 09:12:31;;;;;;;2.53;0.75;;;11.20;99.90;;;;;;5034216;28;20033;-76
2022/11/07 09:14:56;;;;;;;1.13;0.65;;;11.20;99.90;;;;;;5032285;28;20048;-75
2022/11/07 09:17:22;;;;;;;12.18;0.63;;;11.20;99.90;;;;;;5034935;28;20046;-75
2022/11/07 09:19:48;;;;;;;0.43;0.35;;;11.20;99.90;;;;;;5039872;28;20072;-77
2022/11/07 09:22:13;;;;;;;0.45;0.20;;;11.20;99.90;;;;;;5053399;28;20358;-76
2022/11/07 09:24:39;;;;;;;0.47;0.40;;;11.30;99.90;;;;;;5048650;28;20092;-76
2022/11/07 09:27:05;;;;;;;6.72;2.35;;;11.30;99.90;;;;;;5054453;28;20053;-76
2022/11/07 09:29:30;;;;;;;1.50;0.82;;;11.40;99.90;;;;;;5056703;28;20494;-75
2022/11/07 09:31:56;;;;;;;0.13;0.13;;;11.40;99.90;;;;;;5038446;28;20102;-77
2022/11/07 09:34:21;;;;;;;1.80;1.55;;;11.40;99.90;;;;;;5054653;28;20045;-75
2022/11/07 09:36:47;;;;;;;2.22;0.75;;;11.50;99.90;;;;;;5054418;28;20566;-75
2022/11/07 09:39:13;;;;;;;2.20;0.88;;;11.50;99.90;;;;;;5054025;28;20048;-78
2022/11/07 09:41:44;;;;;;;0.08;0.08;;;11.60;99.90;;;;;;5054986;28;20037;-76
2022/11/07 09:44:21;;;;;;;0.68;0.65;;;11.60;99.90;;;;;;5054557;28;20049;-75
2022/11/07 09:47:13;;;;;;;1.75;1.20;;;11.60;99.90;;;;;;5053984;28;20060;-75
2022/11/07 09:49:52;;;;;;;0.25;0.25;;;11.60;99.90;;;;;;5050770;28;20450;-76
2022/11/07 09:52:35;;;;;;;0.90;0.60;;;11.70;99.90;;;;;;5034760;28;20057;-75
2022/11/07 09:55:16;;;;;;;0.10;0.10;;;11.70;99.90;;;;;;5051973;28;20068;-76
2022/11/07 09:57:42;;;;;;;0.47;0.32;;;11.70;99.90;;;;;;5054183;28;20132;-76
2022/11/07 10:00:14;;;;;;;3.30;0.40;;;11.60;99.90;;;;;;5053385;28;20110;-76
2022/11/07 10:02:57;;;;;;;0.17;0.17;;;11.60;99.90;;;;;;5052372;28;20044;-76
2022/11/07 10:05:47;;;;;;;0.08;0.08;;;11.60;99.90;;;;;;5034690;28;20454;-77
2022/11/07 10:08:26;;;;;;;4.57;1.30;;;11.60;99.90;;;;;;5034120;28;20049;-75
2022/11/07 10:10:59;;;;;;;0.75;0.75;;;11.60;99.90;;;;;;5014872;28;20073;-79
2022/11/07 10:13:49;;;;;;;27.05;1.02;;;11.70;99.90;;;;;;5034108;28;20052;-78
2022/11/07 10:16:22;;;;;;;0.10;0.10;;;11.70;99.90;;;;;;5031994;28;20053;-76
2022/11/07 10:18:54;;;;;;;0.30;0.22;;;11.80;99.90;;;;;;5031448;28;20077;-77
2022/11/07 10:21:24;;;;;;;1.65;1.35;;;11.80;99.90;;;;;;5028533;28;20045;-75
2022/11/07 10:23:59;;;;;;;0.28;0.28;;;11.90;99.90;;;;;;5029226;28;20052;-76
2022/11/07 10:26:27;;;;;;;2.75;1.60;;;11.90;99.90;;;;;;5029498;28;20045;-76
2022/11/07 10:29:17;;;;;;;0.38;0.30;;;12.10;99.90;;;;;;5029000;28;20041;-76
2022/11/07 10:32:23;;;;;;;2.40;0.63;;;12.00;99.90;;;;;;5028641;28;20120;-77
2022/11/07 10:34:57;;;;;;;0.10;0.10;;;12.00;99.90;;;;;;4992602;28;20057;-76
2022/11/07 10:37:23;;;;;;;0.10;0.10;;;12.00;99.90;;;;;;5027238;28;20092;-76
2022/11/07 10:39:49;;;;;;;1.25;0.65;;;12.10;99.90;;;;;;5027167;28;20045;-75
2022/11/07 10:42:19;;;;;;;0.03;0.03;;;12.20;99.90;;;;;;5026966;28;20101;-77
2022/11/07 10:44:45;;;;;;;0.22;0.22;;;12.30;99.90;;;;;;4994368;28;20061;-75
2022/11/07 10:47:26;;;;;;;0.15;0.15;;;12.30;99.90;;;;;;5029771;28;20041;-74
2022/11/07 10:49:57;;;;;;;1.38;0.55;;;12.20;99.90;;;;;;5028712;28;20060;-77
2022/11/07 10:52:24;;;;;;;0.75;0.57;;;12.20;99.90;;;;;;5028254;28;20411;-76
2022/11/07 10:54:50;;;;;;;1.95;0.57;;;12.20;99.90;;;;;;5028318;28;20057;-75
2022/11/07 10:57:21;;;;;;;0.10;0.08;;;12.30;99.90;;;;;;5029096;28;20419;-76
2022/11/07 10:59:50;;;;;;;0.73;0.65;;;12.50;99.90;;;;;;5029428;28;20042;-75
2022/11/07 11:02:25;;;;;;;1.10;1.02;;;12.50;99.90;;;;;;5029129;28;20053;-76
2022/11/07 11:05:02;;;;;;;0.38;0.32;;;12.50;99.90;;;;;;5028983;28;20169;-78
2022/11/07 11:07:38;;;;;;;0.17;0.17;;;12.60;99.90;;;;;;5028779;28;20045;-75
2022/11/07 11:10:17;;;;;;;3.90;0.65;;;12.60;99.90;;;;;;5027850;28;20067;-77
2022/11/07 11:12:48;;;;;;;0.05;0.05;;;12.60;99.90;;;;;;5029291;28;20045;-75
2022/11/07 11:15:13;;;;;;;8.30;0.98;;;12.60;99.90;;;;;;5029348;28;20406;-76
2022/11/07 11:17:40;;;;;;;0.10;0.10;;;12.70;99.90;;;;;;5028289;28;20124;-74
2022/11/07 11:20:25;;;;;;;2.65;1.85;;;12.80;99.90;;;;;;5029043;28;20053;-74
2022/11/07 11:22:52;;;;;;;0.15;0.15;;;13.00;99.90;;;;;;5028313;28;20392;-74
2022/11/07 11:25:20;;;;;;;1.55;0.57;;;13.10;99.90;;;;;;5027534;28;20056;-74
2022/11/07 11:28:05;;;;;;;0.43;0.43;;;13.10;99.90;;;;;;5028132;28;20045;-75
2022/11/07 11:30:34;;;;;;;1.50;0.88;;;13.10;99.90;;;;;;5025933;28;20502;-74
2022/11/07 11:33:05;;;;;;;2.08;1.05;;;13.10;99.90;;;;;;5025716;28;20131;-75
2022/11/07 11:35:37;;;;;;;1.27;0.85;;;13.00;58.70;;;;;;5026830;28;20116;-75
2022/11/07 11:38:37;;;;;;;0.85;0.40;;;13.00;98.20;;;;;;5025957;28;20049;-75
2022/11/07 11:41:25;;;;;;;2.25;1.10;;;12.90;99.90;;;;;;5002887;28;20411;-76
2022/11/07 11:43:59;;;;;;;0.05;0.05;;;12.90;99.90;;;;;;5024658;28;20133;-76
2022/11/07 11:46:35;;;;;;;0.65;0.47;;;13.00;99.90;;;;;;5025810;28;20084;-75
2022/11/07 11:51:42;;;;;;;0.20;0.10;;;13.00;99.90;;;;;;5076027;28;20047;-75
2022/11/07 11:54:13;;;;;;;1.13;0.80;;;13.20;99.90;;;;;;5078751;28;20037;-75
2022/11/07 11:56:59;;;;;;;0.35;0.35;;;13.00;99.90;;;;;;5067287;28;20132;-74
2022/11/07 12:00:05;;;;;;;2.80;1.55;;;13.10;99.90;;;;;;5068315;28;20524;-75
2022/11/07 12:02:55;;;;;;;2.28;0.98;;;13.10;99.90;;;;;;5047613;28;20057;-75
2022/11/07 12:05:39;;;;;;;0.52;0.25;;;13.30;99.90;;;;;;5066868;28;20092;-74
2022/11/07 12:08:37;;;;;;;1.52;0.60;;;13.30;39.90;;;;;;5048894;28;20057;-74
2022/11/07 12:11:38;;;;;;;0.43;0.43;;;13.40;31.80;;;;;;5067305;28;20147;-75
2022/11/07 12:14:35;;;;;;;2.17;1.27;;;13.50;1.00;;;;;;5010562;28;20064;-76
2022/11/07 12:17:12;;;;;;;0.82;0.82;;;13.50;99.90;;;;;;5067412;28;20059;-75
2022/11/07 12:19:58;;;;;;;0.43;0.35;;;13.50;1.00;;;;;;5065574;28;20048;-72
2022/11/07 12:22:51;;;;;;;0.10;0.05;;;13.70;1.00;;;;;;5064617;28;20123;-74
2022/11/07 12:25:26;;;;;;;0.00;0.00;;;13.90;99.90;;;;;;5052948;28;20044;-75
2022/11/07 12:27:58;;;;;;;0.00;0.00;;;14.00;99.90;;;;;;5065397;28;20048;-73
2022/11/07 12:30:36;;;;;;;0.10;0.10;;;14.10;1.00;;;;;;5028271;28;20057;-75
2022/11/07 12:33:24;;;;;;;0.00;0.00;;;13.90;1.00;;;;;;5045640;28;20057;-74
2022/11/07 12:36:21;;;;;;;0.00;0.00;;;13.90;99.90;;;;;;5046467;28;20120;-74
2022/11/07 12:39:12;;;;;;;0.28;0.10;;;14.00;1.00;;;;;;5046603;28;20399;-74
2022/11/07 12:41:52;;;;;;;0.20;0.10;;;14.10;1.00;;;;;;5045786;28;20056;-74
2022/11/07 12:44:35;;;;;;;0.50;0.30;;;14.20;1.00;;;;;;5047695;28;20052;-76
2022/11/07 12:47:20;;;;;;;1.67;0.50;;;14.30;98.80;;;;;;5049326;28;20048;-76
2022/11/07 12:50:04;;;;;;;0.47;0.40;;;14.40;99.90;;;;;;5047005;28;20091;-74
2022/11/07 12:52:44;;;;;;;0.10;0.08;;;14.50;1.00;;;;;;5051877;28;20053;-73
2022/11/07 12:55:19;;;;;;;1.75;1.17;;;14.60;1.00;;;;;;5050801;28;20037;-74
2022/11/07 12:57:47;;;;;;;0.10;0.10;;;14.80;99.90;;;;;;5052097;28;20174;-75
2022/11/07 13:00:20;;;;;;;0.35;0.35;;;14.80;99.90;;;;;;5060439;28;20040;-75
2022/11/07 13:03:24;;;;;;;0.22;0.20;;;14.70;54.30;;;;;;5050720;28;20498;-75
2022/11/07 13:05:58;;;;;;;1.20;0.63;;;14.60;99.90;;;;;;5070774;28;20084;-75
2022/11/07 13:08:45;;;;;;;0.17;0.17;;;14.60;99.90;;;;;;5069715;28;20056;-75
2022/11/07 13:11:29;;;;;;;1.63;1.15;;;14.50;99.90;;;;;;5072105;28;20082;-75
2022/11/07 13:14:04;;;;;;;1.35;0.85;;;14.60;91.10;;;;;;5071898;28;20488;-73
2022/11/07 13:16:33;;;;;;;0.00;0.00;;;14.60;51.10;;;;;;5073596;28;20053;-76